Flight Track Log - Related Links

Times and Time Zones

All times are in EDT time to prevent confusion due to time zone crossing. See the N633WC flight status page for this flight to view local times or setup timezone preferences in your user account.

Time Position Orientation Groundspeed Altitude Reporting Facility
EDT Latitude Longitude Course Direction KTS MPH feet Rate Location/Type
Mon 07:46:50 PM 37.7650 -97.2206 North 140 161 2,100  Level Kansas City Center
Mon 07:47:44 PM 37.8022 -97.2147 North 150 173 3,700 1,761 Climbing Kansas City Center
Mon 07:48:39 PM 37.8397 -97.2300 342° North 148 170 5,300 1,213 Climbing Kansas City Center
Mon 07:49:13 PM 37.8619 -97.2383 344° North 159 183 5,500 688 Climbing Kansas City Center
Mon 07:50:15 PM 37.9142 -97.2600 342° North 193 222 6,400 1,113 Climbing Kansas City Center
Mon 07:51:17 PM 37.9614 -97.2781 343° North 181 208 7,800 1,355 Climbing Kansas City Center
Mon 07:52:19 PM 38.0144 -97.2981 343° North 170 196 9,200 1,268 Climbing Kansas City Center
Mon 07:53:20 PM 38.0617 -97.3156 344° North 175 201 10,400 1,122 Climbing Kansas City Center
Mon 07:54:22 PM 38.1083 -97.3314 345° North 174 200 11,500 1,065 Climbing Kansas City Center
Mon 07:55:24 PM 38.1556 -97.3453 345° North 173 199 12,600 1,113 Climbing Kansas City Center
Mon 07:56:26 PM 38.2025 -97.3600 346° North 174 200 13,800 1,122 Climbing Kansas City Center
Mon 07:57:27 PM 38.2508 -97.3756 346° North 178 205 14,900 1,122 Climbing Kansas City Center
Mon 07:58:29 PM 38.2978 -97.3922 344° North 176 203 16,100 1,210 Climbing Kansas City Center
Mon 07:59:31 PM 38.3556 -97.4111 346° North 178 205 17,400 1,073 Climbing Kansas City Center
Mon 08:00:32 PM 38.4039 -97.4278 345° North 179 206 18,300 927 Climbing Kansas City Center
Mon 08:01:34 PM 38.4531 -97.4428 347° North 182 209 19,300 774 Climbing Kansas City Center
Mon 08:02:36 PM 38.5031 -97.4594 345° North 185 213 19,900 339 Climbing Kansas City Center
Mon 08:03:38 PM 38.5575 -97.4761 347° North 199 229 20,000 49 Climbing Kansas City Center
Mon 08:04:39 PM 38.6161 -97.4939 347° North 214 246 20,000  Level Kansas City Center
Mon 08:05:41 PM 38.6761 -97.5125 346° North 221 254 20,000  Level Kansas City Center
Mon 08:06:43 PM 38.7492 -97.5336 347° North 220 253 20,000  Level Kansas City Center
Mon 08:07:45 PM 38.8067 -97.5542 344° North 222 255 20,000  Level Kansas City Center
Mon 08:08:46 PM 38.8636 -97.5739 345° North 222 255 20,000  Level Kansas City Center
Mon 08:09:48 PM 38.9306 -97.5978 344° North 224 258 20,000  Level Kansas City Center
Mon 08:10:50 PM 38.9903 -97.6192 344° North 229 264 20,000  Level Kansas City Center
Mon 08:11:52 PM 39.0583 -97.6425 345° North 226 260 20,000  Level Kansas City Center
Mon 08:12:53 PM 39.1161 -97.6608 346° North 224 258 20,000  Level Kansas City Center
Mon 08:13:55 PM 39.1844 -97.6839 345° North 225 259 20,000  Level Kansas City Center
Mon 08:14:57 PM 39.2389 -97.7036 344° North 227 261 20,000  Level Kansas City Center
Mon 08:15:59 PM 39.2983 -97.7236 345° North 221 254 20,000  Level Kansas City Center
Mon 08:17:00 PM 39.3714 -97.7497 345° North 226 260 20,000  Level Kansas City Center
Mon 08:18:02 PM 39.4325 -97.7700 346° North 226 260 20,000  Level Kansas City Center
Mon 08:19:04 PM 39.4942 -97.7908 345° North 228 262 20,000  Level Kansas City Center
Mon 08:20:05 PM 39.5558 -97.8108 346° North 228 262 20,000  Level Kansas City Center
Mon 08:21:07 PM 39.6172 -97.8322 345° North 228 262 20,000  Level Kansas City Center
Mon 08:21:52 PM 39.6653 -97.8519 342° North 228 262 20,000  Level Minneapolis Center
Mon 08:22:54 PM 39.7269 -97.8728 345° North 229 264 20,000  Level Minneapolis Center
Mon 08:24:08 PM 39.7889 -97.8942 345° North 229 264 20,000  Level Minneapolis Center
Mon 08:25:22 PM 39.8636 -97.9186 346° North 230 265 20,000  Level Minneapolis Center
Mon 08:26:24 PM 39.9378 -97.9450 345° North 230 265 20,000  Level Minneapolis Center
Mon 08:27:26 PM 40.0103 -97.9694 346° North 226 260 20,000 -677 Level Minneapolis Center
Mon 08:28:28 PM 40.0739 -97.9933 344° North 233 268 18,600 -1,500 Descending Minneapolis Center
Mon 08:29:30 PM 40.1447 -98.0183 345° North 255 293 16,900 -1,645 Descending Minneapolis Center
Mon 08:30:32 PM 40.2139 -98.0486 342° North 261 300 15,200 -1,645 Descending Minneapolis Center
Mon 08:31:34 PM 40.2822 -98.0761 343° North 259 298 13,500 -1,597 Descending Minneapolis Center
Mon 08:32:36 PM 40.3508 -98.1003 345° North 255 293 11,900 -1,805 Descending Minneapolis Center
Mon 08:33:37 PM 40.4192 -98.1258 344° North 255 293 9,800 -1,854 Descending Minneapolis Center
Mon 08:34:39 PM 40.5008 -98.1533 346° North 253 291 8,100 -1,403 Descending Minneapolis Center
Mon 08:35:41 PM 40.5622 -98.1753 345° North 234 269 6,900 -1,161 Descending Minneapolis Center
Mon 08:36:43 PM 40.6236 -98.1986 344° North 231 266 5,700 -1,065 Descending Minneapolis Center
Mon 08:37:45 PM 40.6836 -98.2197 345° North 228 262 4,700 -774 Descending Minneapolis Center
Mon 08:38:47 PM 40.7414 -98.2472 340° North 225 259 4,100 -293 Descending Minneapolis Center
Mon 08:39:48 PM 40.7922 -98.2797 334° Northwest 215 247 4,100 -195 Level Minneapolis Center
Mon 08:40:50 PM 40.8508 -98.3111 338° Northwest 200 230 3,700 -581 Descending Minneapolis Center
Mon 08:41:52 PM 40.8978 -98.3142 357° North 179 206 2,900 -677 Descending Minneapolis Center
Mon 08:42:54 PM 40.9328 -98.3147 359° North 151 174 2,300 -581 Descending Minneapolis Center

Login

Don't have an account? Register now (free) for customized features, flight alerts, and more!